sensor_id;sensor_type;location;lat;lon;timestamp;P1;durP1;ratioP1;P2;durP2;ratioP2
48847;SDS011;36611;51.638;5.784;2023-02-15T00:01:41;40.03;;;22.85;;
48847;SDS011;36611;51.638;5.784;2023-02-15T00:04:08;37.65;;;21.77;;
48847;SDS011;36611;51.638;5.784;2023-02-15T00:06:38;37.20;;;20.80;;
48847;SDS011;36611;51.638;5.784;2023-02-15T00:09:05;27.52;;;16.83;;
48847;SDS011;36611;51.638;5.784;2023-02-15T00:11:31;30.52;;;18.38;;
48847;SDS011;36611;51.638;5.784;2023-02-15T00:16:34;28.85;;;17.08;;
48847;SDS011;36611;51.638;5.784;2023-02-15T00:19:02;25.00;;;17.50;;
48847;SDS011;36611;51.638;5.784;2023-02-15T00:21:29;31.50;;;18.48;;
48847;SDS011;36611;51.638;5.784;2023-02-15T00:23:58;32.30;;;18.85;;
48847;SDS011;36611;51.638;5.784;2023-02-15T00:26:26;28.38;;;18.63;;
48847;SDS011;36611;51.638;5.784;2023-02-15T00:28:53;30.95;;;19.98;;
48847;SDS011;36611;51.638;5.784;2023-02-15T00:31:22;28.30;;;17.83;;
48847;SDS011;36611;51.638;5.784;2023-02-15T00:33:48;32.33;;;18.98;;
48847;SDS011;36611;51.638;5.784;2023-02-15T00:36:15;26.33;;;16.70;;
48847;SDS011;36611;51.638;5.784;2023-02-15T00:38:42;36.53;;;16.67;;
48847;SDS011;36611;51.638;5.784;2023-02-15T00:41:09;26.88;;;16.77;;
48847;SDS011;36611;51.638;5.784;2023-02-15T00:43:36;50.50;;;18.35;;
48847;SDS011;36611;51.638;5.784;2023-02-15T00:46:04;27.58;;;16.65;;
48847;SDS011;36611;51.638;5.784;2023-02-15T00:48:31;23.35;;;16.00;;
48847;SDS011;36611;51.638;5.784;2023-02-15T00:50:58;28.55;;;16.45;;
48847;SDS011;36611;51.638;5.784;2023-02-15T00:53:26;26.65;;;17.33;;
48847;SDS011;36611;51.638;5.784;2023-02-15T00:55:53;29.80;;;18.25;;
48847;SDS011;36611;51.638;5.784;2023-02-15T00:58:21;30.75;;;18.38;;
48847;SDS011;36611;51.638;5.784;2023-02-15T01:00:48;35.65;;;20.38;;
48847;SDS011;36611;51.638;5.784;2023-02-15T01:03:16;33.92;;;19.73;;
48847;SDS011;36611;51.638;5.784;2023-02-15T01:05:43;32.92;;;19.90;;
48847;SDS011;36611;51.638;5.784;2023-02-15T01:08:10;35.97;;;20.65;;
48847;SDS011;36611;51.638;5.784;2023-02-15T01:10:37;32.85;;;20.40;;
48847;SDS011;36611;51.638;5.784;2023-02-15T01:13:04;34.83;;;19.95;;
48847;SDS011;36611;51.638;5.784;2023-02-15T01:15:33;31.75;;;19.85;;
48847;SDS011;36611;51.638;5.784;2023-02-15T01:18:02;38.10;;;19.27;;
48847;SDS011;36611;51.638;5.784;2023-02-15T01:20:29;33.33;;;19.40;;
48847;SDS011;36611;51.638;5.784;2023-02-15T01:22:56;33.95;;;18.77;;
48847;SDS011;36611;51.638;5.784;2023-02-15T01:25:23;33.72;;;18.42;;
48847;SDS011;36611;51.638;5.784;2023-02-15T01:27:50;34.80;;;19.95;;
48847;SDS011;36611;51.638;5.784;2023-02-15T01:30:17;26.17;;;16.55;;
48847;SDS011;36611;51.638;5.784;2023-02-15T01:32:44;28.45;;;16.33;;
48847;SDS011;36611;51.638;5.784;2023-02-15T01:35:11;26.88;;;15.75;;
48847;SDS011;36611;51.638;5.784;2023-02-15T01:37:38;26.55;;;16.50;;
48847;SDS011;36611;51.638;5.784;2023-02-15T01:40:05;28.13;;;16.48;;
48847;SDS011;36611;51.638;5.784;2023-02-15T01:42:35;28.83;;;17.95;;
48847;SDS011;36611;51.638;5.784;2023-02-15T01:45:23;32.42;;;17.95;;
48847;SDS011;36611;51.638;5.784;2023-02-15T01:58:26;28.40;;;16.73;;
48847;SDS011;36611;51.638;5.784;2023-02-15T02:00:56;26.63;;;17.15;;
48847;SDS011;36611;51.638;5.784;2023-02-15T02:06:15;30.30;;;17.45;;
48847;SDS011;36611;51.638;5.784;2023-02-15T02:08:41;24.30;;;15.50;;
48847;SDS011;36611;51.638;5.784;2023-02-15T02:11:11;26.95;;;16.20;;
48847;SDS011;36611;51.638;5.784;2023-02-15T02:13:42;25.20;;;15.55;;
48847;SDS011;36611;51.638;5.784;2023-02-15T02:19:03;28.40;;;16.65;;
48847;SDS011;36611;51.638;5.784;2023-02-15T02:27:23;32.47;;;17.52;;
48847;SDS011;36611;51.638;5.784;2023-02-15T02:38:23;26.38;;;16.58;;
48847;SDS011;36611;51.638;5.784;2023-02-15T02:46:21;33.90;;;18.23;;
48847;SDS011;36611;51.638;5.784;2023-02-15T02:48:54;33.78;;;17.85;;
48847;SDS011;36611;51.638;5.784;2023-02-15T02:51:21;32.22;;;18.52;;
48847;SDS011;36611;51.638;5.784;2023-02-15T02:53:51;35.28;;;17.08;;
48847;SDS011;36611;51.638;5.784;2023-02-15T02:56:27;30.85;;;18.70;;
48847;SDS011;36611;51.638;5.784;2023-02-15T02:58:59;33.40;;;20.15;;
48847;SDS011;36611;51.638;5.784;2023-02-15T03:01:39;31.40;;;17.58;;
48847;SDS011;36611;51.638;5.784;2023-02-15T03:04:11;33.25;;;17.92;;
48847;SDS011;36611;51.638;5.784;2023-02-15T03:06:44;35.08;;;18.90;;
48847;SDS011;36611;51.638;5.784;2023-02-15T03:09:18;33.60;;;18.38;;
48847;SDS011;36611;51.638;5.784;2023-02-15T03:11:51;28.75;;;16.58;;
48847;SDS011;36611;51.638;5.784;2023-02-15T03:14:19;30.27;;;17.42;;
48847;SDS011;36611;51.638;5.784;2023-02-15T03:16:47;28.98;;;16.60;;
48847;SDS011;36611;51.638;5.784;2023-02-15T03:19:22;31.30;;;17.15;;
48847;SDS011;36611;51.638;5.784;2023-02-15T03:21:56;32.05;;;17.90;;
48847;SDS011;36611;51.638;5.784;2023-02-15T03:24:37;30.08;;;17.52;;
48847;SDS011;36611;51.638;5.784;2023-02-15T03:27:12;30.20;;;17.05;;
48847;SDS011;36611;51.638;5.784;2023-02-15T03:29:45;28.23;;;15.82;;
48847;SDS011;36611;51.638;5.784;2023-02-15T03:32:15;28.50;;;16.58;;
48847;SDS011;36611;51.638;5.784;2023-02-15T03:34:43;28.23;;;16.50;;
48847;SDS011;36611;51.638;5.784;2023-02-15T03:37:16;29.45;;;16.42;;
48847;SDS011;36611;51.638;5.784;2023-02-15T03:42:29;31.40;;;17.00;;
48847;SDS011;36611;51.638;5.784;2023-02-15T03:45:09;31.23;;;17.90;;
48847;SDS011;36611;51.638;5.784;2023-02-15T03:47:41;27.08;;;15.90;;
48847;SDS011;36611;51.638;5.784;2023-02-15T03:50:24;27.50;;;16.75;;
48847;SDS011;36611;51.638;5.784;2023-02-15T03:53:21;30.70;;;16.75;;
48847;SDS011;36611;51.638;5.784;2023-02-15T03:55:52;24.02;;;15.32;;
48847;SDS011;36611;51.638;5.784;2023-02-15T03:58:21;25.85;;;16.05;;
48847;SDS011;36611;51.638;5.784;2023-02-15T04:01:11;25.48;;;15.75;;
48847;SDS011;36611;51.638;5.784;2023-02-15T04:04:03;32.05;;;17.73;;
48847;SDS011;36611;51.638;5.784;2023-02-15T04:06:45;31.85;;;17.52;;
48847;SDS011;36611;51.638;5.784;2023-02-15T04:09:12;32.17;;;17.75;;
48847;SDS011;36611;51.638;5.784;2023-02-15T04:14:25;28.38;;;16.75;;
48847;SDS011;36611;51.638;5.784;2023-02-15T04:17:10;31.73;;;17.13;;
48847;SDS011;36611;51.638;5.784;2023-02-15T04:19:37;30.65;;;17.10;;
48847;SDS011;36611;51.638;5.784;2023-02-15T04:22:22;26.17;;;15.98;;
48847;SDS011;36611;51.638;5.784;2023-02-15T04:25:07;28.52;;;16.70;;
48847;SDS011;36611;51.638;5.784;2023-02-15T04:27:38;32.40;;;16.65;;
48847;SDS011;36611;51.638;5.784;2023-02-15T04:30:16;28.58;;;16.55;;
48847;SDS011;36611;51.638;5.784;2023-02-15T04:32:44;33.28;;;18.35;;
48847;SDS011;36611;51.638;5.784;2023-02-15T04:35:11;28.05;;;17.50;;
48847;SDS011;36611;51.638;5.784;2023-02-15T04:37:39;31.98;;;16.85;;
48847;SDS011;36611;51.638;5.784;2023-02-15T04:40:07;29.33;;;16.27;;
48847;SDS011;36611;51.638;5.784;2023-02-15T04:42:35;31.27;;;16.48;;
48847;SDS011;36611;51.638;5.784;2023-02-15T04:45:02;27.98;;;17.00;;
48847;SDS011;36611;51.638;5.784;2023-02-15T04:47:29;28.70;;;17.15;;
48847;SDS011;36611;51.638;5.784;2023-02-15T04:49:56;29.33;;;17.20;;
48847;SDS011;36611;51.638;5.784;2023-02-15T04:52:23;29.92;;;17.83;;
48847;SDS011;36611;51.638;5.784;2023-02-15T04:54:50;27.38;;;15.82;;
48847;SDS011;36611;51.638;5.784;2023-02-15T04:57:17;35.13;;;18.35;;
48847;SDS011;36611;51.638;5.784;2023-02-15T04:59:43;32.13;;;17.63;;
48847;SDS011;36611;51.638;5.784;2023-02-15T05:02:10;33.95;;;18.75;;
48847;SDS011;36611;51.638;5.784;2023-02-15T05:04:36;33.65;;;18.42;;
48847;SDS011;36611;51.638;5.784;2023-02-15T05:07:03;31.92;;;17.67;;
48847;SDS011;36611;51.638;5.784;2023-02-15T05:09:29;33.00;;;18.23;;
48847;SDS011;36611;51.638;5.784;2023-02-15T05:11:56;30.58;;;17.85;;
48847;SDS011;36611;51.638;5.784;2023-02-15T05:14:23;29.85;;;18.65;;
48847;SDS011;36611;51.638;5.784;2023-02-15T05:16:50;32.92;;;17.90;;
48847;SDS011;36611;51.638;5.784;2023-02-15T05:19:16;32.10;;;17.95;;
48847;SDS011;36611;51.638;5.784;2023-02-15T05:21:43;32.22;;;16.98;;
48847;SDS011;36611;51.638;5.784;2023-02-15T05:24:10;34.10;;;18.73;;
48847;SDS011;36611;51.638;5.784;2023-02-15T05:26:55;31.33;;;16.80;;
48847;SDS011;36611;51.638;5.784;2023-02-15T05:29:40;30.70;;;17.45;;
48847;SDS011;36611;51.638;5.784;2023-02-15T05:32:06;40.40;;;17.80;;
48847;SDS011;36611;51.638;5.784;2023-02-15T05:34:33;33.00;;;17.55;;
48847;SDS011;36611;51.638;5.784;2023-02-15T05:37:00;36.28;;;17.77;;
48847;SDS011;36611;51.638;5.784;2023-02-15T05:39:26;32.67;;;17.63;;
48847;SDS011;36611;51.638;5.784;2023-02-15T05:41:53;32.30;;;17.35;;
48847;SDS011;36611;51.638;5.784;2023-02-15T05:44:20;35.05;;;17.92;;
48847;SDS011;36611;51.638;5.784;2023-02-15T05:46:46;37.25;;;20.30;;
48847;SDS011;36611;51.638;5.784;2023-02-15T05:49:13;34.45;;;17.83;;
48847;SDS011;36611;51.638;5.784;2023-02-15T05:51:39;37.50;;;19.20;;
48847;SDS011;36611;51.638;5.784;2023-02-15T05:54:06;34.20;;;19.52;;
48847;SDS011;36611;51.638;5.784;2023-02-15T05:56:32;35.08;;;20.05;;
48847;SDS011;36611;51.638;5.784;2023-02-15T05:58:59;39.13;;;20.05;;
48847;SDS011;36611;51.638;5.784;2023-02-15T06:01:26;33.53;;;18.92;;
48847;SDS011;36611;51.638;5.784;2023-02-15T06:03:52;35.78;;;19.35;;
48847;SDS011;36611;51.638;5.784;2023-02-15T06:06:20;33.80;;;18.20;;
48847;SDS011;36611;51.638;5.784;2023-02-15T06:08:47;33.80;;;19.33;;
48847;SDS011;36611;51.638;5.784;2023-02-15T06:11:13;31.23;;;18.15;;
48847;SDS011;36611;51.638;5.784;2023-02-15T06:13:40;35.60;;;19.02;;
48847;SDS011;36611;51.638;5.784;2023-02-15T06:16:06;33.97;;;18.35;;
48847;SDS011;36611;51.638;5.784;2023-02-15T06:18:33;33.17;;;18.05;;
48847;SDS011;36611;51.638;5.784;2023-02-15T06:21:00;31.58;;;17.20;;
48847;SDS011;36611;51.638;5.784;2023-02-15T06:23:27;33.00;;;17.88;;
48847;SDS011;36611;51.638;5.784;2023-02-15T06:25:54;32.58;;;18.40;;
48847;SDS011;36611;51.638;5.784;2023-02-15T06:28:21;37.97;;;19.48;;
48847;SDS011;36611;51.638;5.784;2023-02-15T06:30:48;34.00;;;17.73;;
48847;SDS011;36611;51.638;5.784;2023-02-15T06:33:14;37.40;;;19.63;;
48847;SDS011;36611;51.638;5.784;2023-02-15T06:35:41;33.33;;;19.17;;
48847;SDS011;36611;51.638;5.784;2023-02-15T06:38:08;33.70;;;19.02;;
48847;SDS011;36611;51.638;5.784;2023-02-15T06:40:34;34.22;;;19.10;;
48847;SDS011;36611;51.638;5.784;2023-02-15T06:43:01;36.80;;;19.63;;
48847;SDS011;36611;51.638;5.784;2023-02-15T06:45:28;39.28;;;21.02;;
48847;SDS011;36611;51.638;5.784;2023-02-15T06:47:54;35.25;;;21.27;;
48847;SDS011;36611;51.638;5.784;2023-02-15T06:50:21;35.03;;;19.67;;
48847;SDS011;36611;51.638;5.784;2023-02-15T06:52:48;33.03;;;18.67;;
48847;SDS011;36611;51.638;5.784;2023-02-15T06:55:14;32.63;;;19.80;;
48847;SDS011;36611;51.638;5.784;2023-02-15T06:57:41;36.08;;;20.33;;
48847;SDS011;36611;51.638;5.784;2023-02-15T07:00:08;41.15;;;20.67;;
48847;SDS011;36611;51.638;5.784;2023-02-15T07:02:35;39.67;;;20.65;;
48847;SDS011;36611;51.638;5.784;2023-02-15T07:05:01;38.40;;;20.65;;
48847;SDS011;36611;51.638;5.784;2023-02-15T07:07:29;35.33;;;20.15;;
48847;SDS011;36611;51.638;5.784;2023-02-15T07:09:55;38.03;;;20.73;;
48847;SDS011;36611;51.638;5.784;2023-02-15T07:12:22;39.63;;;20.20;;
48847;SDS011;36611;51.638;5.784;2023-02-15T07:15:17;33.35;;;18.00;;
48847;SDS011;36611;51.638;5.784;2023-02-15T07:17:47;37.88;;;20.05;;
48847;SDS011;36611;51.638;5.784;2023-02-15T07:20:18;38.90;;;18.85;;
48847;SDS011;36611;51.638;5.784;2023-02-15T07:22:46;40.95;;;20.60;;
48847;SDS011;36611;51.638;5.784;2023-02-15T07:25:14;36.45;;;20.70;;
48847;SDS011;36611;51.638;5.784;2023-02-15T07:27:41;39.30;;;21.02;;
48847;SDS011;36611;51.638;5.784;2023-02-15T07:30:09;41.15;;;20.58;;
48847;SDS011;36611;51.638;5.784;2023-02-15T07:32:37;40.92;;;21.15;;
48847;SDS011;36611;51.638;5.784;2023-02-15T07:35:24;38.58;;;20.40;;
48847;SDS011;36611;51.638;5.784;2023-02-15T07:37:50;33.53;;;19.33;;
48847;SDS011;36611;51.638;5.784;2023-02-15T07:40:19;41.75;;;21.17;;
48847;SDS011;36611;51.638;5.784;2023-02-15T07:42:48;43.67;;;22.85;;
48847;SDS011;36611;51.638;5.784;2023-02-15T07:45:17;41.75;;;22.48;;
48847;SDS011;36611;51.638;5.784;2023-02-15T07:47:45;46.35;;;22.52;;
48847;SDS011;36611;51.638;5.784;2023-02-15T07:50:11;41.17;;;21.95;;
48847;SDS011;36611;51.638;5.784;2023-02-15T07:52:38;39.13;;;21.13;;
48847;SDS011;36611;51.638;5.784;2023-02-15T07:55:05;39.45;;;22.10;;
48847;SDS011;36611;51.638;5.784;2023-02-15T07:57:32;38.88;;;21.83;;
48847;SDS011;36611;51.638;5.784;2023-02-15T07:59:58;38.55;;;22.52;;
48847;SDS011;36611;51.638;5.784;2023-02-15T08:02:25;40.85;;;22.42;;
48847;SDS011;36611;51.638;5.784;2023-02-15T08:04:51;40.25;;;22.92;;
48847;SDS011;36611;51.638;5.784;2023-02-15T08:07:18;39.25;;;22.70;;
48847;SDS011;36611;51.638;5.784;2023-02-15T08:09:44;40.83;;;22.48;;
48847;SDS011;36611;51.638;5.784;2023-02-15T08:12:11;38.08;;;22.00;;
48847;SDS011;36611;51.638;5.784;2023-02-15T08:14:38;43.00;;;23.48;;
48847;SDS011;36611;51.638;5.784;2023-02-15T08:17:05;42.97;;;23.52;;
48847;SDS011;36611;51.638;5.784;2023-02-15T08:19:32;37.28;;;22.00;;
48847;SDS011;36611;51.638;5.784;2023-02-15T08:22:00;43.35;;;22.20;;
48847;SDS011;36611;51.638;5.784;2023-02-15T08:24:34;37.38;;;22.30;;
48847;SDS011;36611;51.638;5.784;2023-02-15T08:27:03;35.80;;;20.92;;
48847;SDS011;36611;51.638;5.784;2023-02-15T08:29:32;40.45;;;22.52;;
48847;SDS011;36611;51.638;5.784;2023-02-15T08:32:00;36.08;;;21.58;;
48847;SDS011;36611;51.638;5.784;2023-02-15T08:34:31;36.65;;;21.85;;
48847;SDS011;36611;51.638;5.784;2023-02-15T08:37:01;37.67;;;21.95;;
48847;SDS011;36611;51.638;5.784;2023-02-15T08:39:27;36.22;;;21.88;;
48847;SDS011;36611;51.638;5.784;2023-02-15T08:41:54;40.03;;;22.40;;
48847;SDS011;36611;51.638;5.784;2023-02-15T08:44:21;42.15;;;24.42;;
48847;SDS011;36611;51.638;5.784;2023-02-15T08:46:48;39.10;;;23.00;;
48847;SDS011;36611;51.638;5.784;2023-02-15T08:49:20;39.88;;;24.27;;
48847;SDS011;36611;51.638;5.784;2023-02-15T08:51:48;43.53;;;25.08;;
48847;SDS011;36611;51.638;5.784;2023-02-15T08:54:17;43.25;;;24.55;;
48847;SDS011;36611;51.638;5.784;2023-02-15T08:56:46;39.13;;;24.30;;
48847;SDS011;36611;51.638;5.784;2023-02-15T08:59:15;41.78;;;25.45;;
48847;SDS011;36611;51.638;5.784;2023-02-15T09:01:47;40.13;;;23.98;;
48847;SDS011;36611;51.638;5.784;2023-02-15T09:04:15;43.72;;;24.55;;
48847;SDS011;36611;51.638;5.784;2023-02-15T09:06:43;42.15;;;25.15;;
48847;SDS011;36611;51.638;5.784;2023-02-15T09:09:14;42.38;;;24.27;;
48847;SDS011;36611;51.638;5.784;2023-02-15T09:11:42;38.85;;;24.73;;
48847;SDS011;36611;51.638;5.784;2023-02-15T09:14:11;38.38;;;23.80;;
48847;SDS011;36611;51.638;5.784;2023-02-15T09:16:43;38.78;;;24.55;;
48847;SDS011;36611;51.638;5.784;2023-02-15T09:19:16;38.22;;;24.15;;
48847;SDS011;36611;51.638;5.784;2023-02-15T09:21:44;41.30;;;24.90;;
48847;SDS011;36611;51.638;5.784;2023-02-15T09:24:12;38.03;;;24.58;;
48847;SDS011;36611;51.638;5.784;2023-02-15T09:26:41;37.60;;;24.90;;
48847;SDS011;36611;51.638;5.784;2023-02-15T09:29:10;41.05;;;25.77;;
48847;SDS011;36611;51.638;5.784;2023-02-15T09:31:38;40.70;;;26.50;;
48847;SDS011;36611;51.638;5.784;2023-02-15T09:34:11;39.10;;;24.88;;
48847;SDS011;36611;51.638;5.784;2023-02-15T09:36:40;42.25;;;27.40;;
48847;SDS011;36611;51.638;5.784;2023-02-15T09:39:23;38.88;;;24.77;;
48847;SDS011;36611;51.638;5.784;2023-02-15T09:50:02;38.72;;;25.80;;
48847;SDS011;36611;51.638;5.784;2023-02-15T10:00:38;37.67;;;25.98;;
48847;SDS011;36611;51.638;5.784;2023-02-15T10:06:05;37.53;;;25.48;;
48847;SDS011;36611;51.638;5.784;2023-02-15T10:11:28;38.38;;;26.25;;
48847;SDS011;36611;51.638;5.784;2023-02-15T10:16:46;38.25;;;26.38;;
48847;SDS011;36611;51.638;5.784;2023-02-15T10:21:54;37.97;;;25.83;;
48847;SDS011;36611;51.638;5.784;2023-02-15T10:24:34;35.53;;;24.85;;
48847;SDS011;36611;51.638;5.784;2023-02-15T10:27:18;42.30;;;26.83;;
48847;SDS011;36611;51.638;5.784;2023-02-15T10:35:48;34.83;;;23.75;;
48847;SDS011;36611;51.638;5.784;2023-02-15T10:38:27;33.10;;;23.30;;
48847;SDS011;36611;51.638;5.784;2023-02-15T10:46:46;31.40;;;23.00;;
48847;SDS011;36611;51.638;5.784;2023-02-15T11:00:45;29.33;;;21.60;;
48847;SDS011;36611;51.638;5.784;2023-02-15T11:06:26;35.80;;;23.73;;
48847;SDS011;36611;51.638;5.784;2023-02-15T11:08:49;35.03;;;23.98;;
48847;SDS011;36611;51.638;5.784;2023-02-15T11:11:21;29.92;;;22.98;;
48847;SDS011;36611;51.638;5.784;2023-02-15T11:13:52;32.33;;;23.98;;
48847;SDS011;36611;51.638;5.784;2023-02-15T11:16:25;32.72;;;24.40;;
48847;SDS011;36611;51.638;5.784;2023-02-15T11:19:04;31.15;;;23.73;;
48847;SDS011;36611;51.638;5.784;2023-02-15T11:21:42;29.98;;;24.40;;
48847;SDS011;36611;51.638;5.784;2023-02-15T11:24:12;35.65;;;24.15;;
48847;SDS011;36611;51.638;5.784;2023-02-15T11:26:43;31.33;;;23.92;;
48847;SDS011;36611;51.638;5.784;2023-02-15T11:37:40;30.15;;;23.70;;
48847;SDS011;36611;51.638;5.784;2023-02-15T11:40:24;31.35;;;23.50;;
48847;SDS011;36611;51.638;5.784;2023-02-15T11:42:55;32.60;;;23.92;;
48847;SDS011;36611;51.638;5.784;2023-02-15T11:45:28;30.10;;;22.58;;
48847;SDS011;36611;51.638;5.784;2023-02-15T11:47:57;31.05;;;23.00;;
48847;SDS011;36611;51.638;5.784;2023-02-15T11:50:26;29.30;;;21.60;;
48847;SDS011;36611;51.638;5.784;2023-02-15T11:53:02;29.60;;;21.08;;
48847;SDS011;36611;51.638;5.784;2023-02-15T11:55:32;31.02;;;21.42;;
48847;SDS011;36611;51.638;5.784;2023-02-15T11:58:04;30.10;;;22.20;;
48847;SDS011;36611;51.638;5.784;2023-02-15T12:06:04;27.08;;;21.10;;
48847;SDS011;36611;51.638;5.784;2023-02-15T12:08:39;31.98;;;21.45;;
48847;SDS011;36611;51.638;5.784;2023-02-15T12:11:14;28.58;;;21.45;;
48847;SDS011;36611;51.638;5.784;2023-02-15T12:13:56;30.30;;;22.33;;
48847;SDS011;36611;51.638;5.784;2023-02-15T12:16:25;29.13;;;21.63;;
48847;SDS011;36611;51.638;5.784;2023-02-15T12:18:55;31.17;;;20.73;;
48847;SDS011;36611;51.638;5.784;2023-02-15T12:21:31;29.80;;;21.67;;
48847;SDS011;36611;51.638;5.784;2023-02-15T12:29:46;29.58;;;21.75;;
48847;SDS011;36611;51.638;5.784;2023-02-15T12:32:31;28.00;;;21.48;;
48847;SDS011;36611;51.638;5.784;2023-02-15T12:35:27;33.47;;;21.67;;
48847;SDS011;36611;51.638;5.784;2023-02-15T12:38:00;29.10;;;21.90;;
48847;SDS011;36611;51.638;5.784;2023-02-15T12:40:31;29.00;;;21.92;;
48847;SDS011;36611;51.638;5.784;2023-02-15T12:42:59;27.05;;;21.58;;
48847;SDS011;36611;51.638;5.784;2023-02-15T12:45:31;28.30;;;21.17;;
48847;SDS011;36611;51.638;5.784;2023-02-15T12:48:07;31.33;;;22.00;;
48847;SDS011;36611;51.638;5.784;2023-02-15T12:50:50;29.17;;;22.27;;
48847;SDS011;36611;51.638;5.784;2023-02-15T12:53:39;29.73;;;22.98;;
48847;SDS011;36611;51.638;5.784;2023-02-15T12:56:06;29.60;;;22.77;;
48847;SDS011;36611;51.638;5.784;2023-02-15T12:58:41;30.77;;;22.60;;
48847;SDS011;36611;51.638;5.784;2023-02-15T13:03:35;29.73;;;22.60;;
48847;SDS011;36611;51.638;5.784;2023-02-15T13:06:05;33.22;;;22.17;;
48847;SDS011;36611;51.638;5.784;2023-02-15T13:08:55;29.98;;;22.75;;
48847;SDS011;36611;51.638;5.784;2023-02-15T13:11:25;29.83;;;21.73;;
48847;SDS011;36611;51.638;5.784;2023-02-15T13:13:58;27.85;;;22.58;;
48847;SDS011;36611;51.638;5.784;2023-02-15T13:16:29;30.58;;;22.95;;
48847;SDS011;36611;51.638;5.784;2023-02-15T13:18:58;30.77;;;22.58;;
48847;SDS011;36611;51.638;5.784;2023-02-15T13:21:35;30.17;;;22.17;;
48847;SDS011;36611;51.638;5.784;2023-02-15T13:24:15;29.77;;;23.00;;
48847;SDS011;36611;51.638;5.784;2023-02-15T13:26:47;30.70;;;22.10;;
48847;SDS011;36611;51.638;5.784;2023-02-15T13:29:28;31.20;;;22.92;;
48847;SDS011;36611;51.638;5.784;2023-02-15T13:31:57;34.33;;;22.85;;
48847;SDS011;36611;51.638;5.784;2023-02-15T13:34:31;29.73;;;22.48;;
48847;SDS011;36611;51.638;5.784;2023-02-15T13:37:13;30.02;;;22.80;;
48847;SDS011;36611;51.638;5.784;2023-02-15T13:40:18;31.00;;;22.77;;
48847;SDS011;36611;51.638;5.784;2023-02-15T13:51:21;31.33;;;22.40;;
48847;SDS011;36611;51.638;5.784;2023-02-15T14:16:42;28.27;;;21.50;;
48847;SDS011;36611;51.638;5.784;2023-02-15T14:19:05;29.98;;;22.27;;
48847;SDS011;36611;51.638;5.784;2023-02-15T14:32:12;30.10;;;22.55;;
48847;SDS011;36611;51.638;5.784;2023-02-15T14:34:48;33.75;;;22.92;;
48847;SDS011;36611;51.638;5.784;2023-02-15T14:37:44;33.72;;;23.45;;
48847;SDS011;36611;51.638;5.784;2023-02-15T14:40:20;33.35;;;22.92;;
48847;SDS011;36611;51.638;5.784;2023-02-15T14:43:11;29.73;;;23.08;;
48847;SDS011;36611;51.638;5.784;2023-02-15T14:45:53;30.35;;;23.15;;
48847;SDS011;36611;51.638;5.784;2023-02-15T14:48:50;30.15;;;22.35;;
48847;SDS011;36611;51.638;5.784;2023-02-15T14:56:45;30.77;;;22.17;;
48847;SDS011;36611;51.638;5.784;2023-02-15T14:59:13;30.33;;;22.88;;
48847;SDS011;36611;51.638;5.784;2023-02-15T15:01:50;29.75;;;23.08;;
48847;SDS011;36611;51.638;5.784;2023-02-15T15:04:23;29.67;;;21.35;;
48847;SDS011;36611;51.638;5.784;2023-02-15T15:06:59;31.05;;;22.20;;
48847;SDS011;36611;51.638;5.784;2023-02-15T15:09:36;31.30;;;21.52;;
48847;SDS011;36611;51.638;5.784;2023-02-15T15:12:14;26.90;;;21.42;;
48847;SDS011;36611;51.638;5.784;2023-02-15T15:14:47;29.80;;;21.48;;
48847;SDS011;36611;51.638;5.784;2023-02-15T15:22:43;29.23;;;21.52;;
48847;SDS011;36611;51.638;5.784;2023-02-15T15:27:59;31.00;;;22.35;;
48847;SDS011;36611;51.638;5.784;2023-02-15T15:38:10;31.70;;;20.00;;
48847;SDS011;36611;51.638;5.784;2023-02-15T15:41:23;31.88;;;20.90;;
48847;SDS011;36611;51.638;5.784;2023-02-15T15:49:36;31.42;;;19.77;;
48847;SDS011;36611;51.638;5.784;2023-02-15T15:52:11;33.08;;;19.92;;
48847;SDS011;36611;51.638;5.784;2023-02-15T15:54:40;30.33;;;20.02;;
48847;SDS011;36611;51.638;5.784;2023-02-15T15:57:22;29.85;;;20.23;;
48847;SDS011;36611;51.638;5.784;2023-02-15T15:59:50;29.02;;;19.33;;
48847;SDS011;36611;51.638;5.784;2023-02-15T16:02:17;34.63;;;20.10;;
48847;SDS011;36611;51.638;5.784;2023-02-15T16:04:45;28.73;;;19.45;;
48847;SDS011;36611;51.638;5.784;2023-02-15T16:07:20;29.30;;;19.45;;
48847;SDS011;36611;51.638;5.784;2023-02-15T16:10:00;31.13;;;20.35;;
48847;SDS011;36611;51.638;5.784;2023-02-15T16:12:27;29.52;;;19.35;;
48847;SDS011;36611;51.638;5.784;2023-02-15T16:14:57;30.45;;;20.73;;
48847;SDS011;36611;51.638;5.784;2023-02-15T16:17:29;28.98;;;19.23;;
48847;SDS011;36611;51.638;5.784;2023-02-15T16:20:00;32.47;;;19.95;;
48847;SDS011;36611;51.638;5.784;2023-02-15T16:22:29;29.98;;;19.73;;
48847;SDS011;36611;51.638;5.784;2023-02-15T16:27:37;31.20;;;20.77;;
48847;SDS011;36611;51.638;5.784;2023-02-15T16:30:18;32.33;;;19.88;;
48847;SDS011;36611;51.638;5.784;2023-02-15T16:32:54;30.38;;;19.80;;
48847;SDS011;36611;51.638;5.784;2023-02-15T16:35:30;33.38;;;20.13;;
48847;SDS011;36611;51.638;5.784;2023-02-15T16:37:57;38.00;;;22.83;;
48847;SDS011;36611;51.638;5.784;2023-02-15T16:42:55;32.75;;;21.50;;
48847;SDS011;36611;51.638;5.784;2023-02-15T16:45:27;32.58;;;20.98;;
48847;SDS011;36611;51.638;5.784;2023-02-15T16:47:58;36.10;;;22.50;;
48847;SDS011;36611;51.638;5.784;2023-02-15T16:50:32;32.60;;;21.30;;
48847;SDS011;36611;51.638;5.784;2023-02-15T16:53:01;33.38;;;22.27;;
48847;SDS011;36611;51.638;5.784;2023-02-15T16:55:34;34.00;;;22.33;;
48847;SDS011;36611;51.638;5.784;2023-02-15T16:58:04;32.97;;;21.25;;
48847;SDS011;36611;51.638;5.784;2023-02-15T17:00:36;34.33;;;23.02;;
48847;SDS011;36611;51.638;5.784;2023-02-15T17:03:19;32.65;;;23.13;;
48847;SDS011;36611;51.638;5.784;2023-02-15T17:05:50;32.42;;;21.52;;
48847;SDS011;36611;51.638;5.784;2023-02-15T17:08:34;33.47;;;23.25;;
48847;SDS011;36611;51.638;5.784;2023-02-15T17:11:13;33.85;;;22.17;;
48847;SDS011;36611;51.638;5.784;2023-02-15T17:14:10;30.80;;;21.75;;
48847;SDS011;36611;51.638;5.784;2023-02-15T17:16:31;34.45;;;21.23;;
48847;SDS011;36611;51.638;5.784;2023-02-15T17:19:07;35.78;;;22.92;;
48847;SDS011;36611;51.638;5.784;2023-02-15T17:21:40;33.15;;;22.02;;
48847;SDS011;36611;51.638;5.784;2023-02-15T17:24:15;38.97;;;23.40;;
48847;SDS011;36611;51.638;5.784;2023-02-15T17:26:48;36.42;;;23.08;;
48847;SDS011;36611;51.638;5.784;2023-02-15T17:29:23;35.28;;;23.30;;
48847;SDS011;36611;51.638;5.784;2023-02-15T17:31:52;40.50;;;25.45;;
48847;SDS011;36611;51.638;5.784;2023-02-15T17:34:43;37.00;;;23.30;;
48847;SDS011;36611;51.638;5.784;2023-02-15T17:37:14;36.80;;;23.67;;
48847;SDS011;36611;51.638;5.784;2023-02-15T17:39:57;36.00;;;24.02;;
48847;SDS011;36611;51.638;5.784;2023-02-15T17:42:26;34.30;;;23.55;;
48847;SDS011;36611;51.638;5.784;2023-02-15T17:44:53;38.38;;;24.65;;
48847;SDS011;36611;51.638;5.784;2023-02-15T17:47:20;38.20;;;23.70;;
48847;SDS011;36611;51.638;5.784;2023-02-15T17:49:50;37.55;;;24.90;;
48847;SDS011;36611;51.638;5.784;2023-02-15T17:52:18;37.35;;;23.88;;
48847;SDS011;36611;51.638;5.784;2023-02-15T17:54:45;38.75;;;24.40;;
48847;SDS011;36611;51.638;5.784;2023-02-15T17:57:30;34.40;;;22.52;;
48847;SDS011;36611;51.638;5.784;2023-02-15T17:59:57;35.92;;;22.30;;